Time;durP1;ratioP1;P1;durP2;ratioP2;P2;SDS_P1;SDS_P2;PMS_P1;PMS_P2;Temp;Humidity;BMP_temperature;BMP_pressure;BME280_temperature;BME280_humidity;BME280_pressure;Samples;Min_cycle;Max_cycle;Signal;HPM_P1;HPM_P2
2021/05/20 00:01:09;;;;;;;;;;;19.70;58.90;;;;;;5010470;28;19926;-57
2021/05/20 00:03:35;;;;;;;;;;;19.70;59.00;;;;;;4999517;28;19952;-57
2021/05/20 00:06:00;;;;;;;;;;;19.70;59.00;;;;;;5020754;28;19943;-57
2021/05/20 00:08:26;;;;;;;;;;;19.70;58.90;;;;;;5020722;28;19917;-57
2021/05/20 00:10:51;;;;;;;;;;;19.70;58.90;;;;;;5021879;28;20004;-57
2021/05/20 00:13:16;;;;;;;;;;;19.70;58.90;;;;;;5020768;28;20378;-58
2021/05/20 00:15:42;;;;;;;;;;;19.80;59.00;;;;;;5021520;28;19924;-57
2021/05/20 00:18:07;;;;;;;;;;;19.70;59.00;;;;;;5021658;28;20279;-58
2021/05/20 00:20:33;;;;;;;;;;;19.70;59.00;;;;;;5010806;28;19917;-57
2021/05/20 00:22:58;;;;;;;;;;;19.70;58.90;;;;;;5001613;28;19917;-56
2021/05/20 00:25:24;;;;;;;;;;;19.70;59.40;;;;;;5016342;28;20379;-62
2021/05/20 00:27:49;;;;;;;;;;;19.70;58.90;;;;;;5015588;28;19996;-55
2021/05/20 00:30:15;;;;;;;;;;;19.70;58.90;;;;;;4997862;28;20292;-57
2021/05/20 00:32:40;;;;;;;;;;;19.70;58.80;;;;;;4998819;28;19921;-59
2021/05/20 00:35:06;;;;;;;;;;;19.70;58.80;;;;;;5009506;28;19927;-58
2021/05/20 00:37:31;;;;;;;;;;;19.70;58.90;;;;;;4999643;28;20294;-57
2021/05/20 00:39:57;;;;;;;;;;;19.70;58.90;;;;;;5018574;28;19935;-57
2021/05/20 00:42:22;;;;;;;;;;;19.70;58.90;;;;;;5016326;28;19925;-58
2021/05/20 00:44:51;;;;;;;;;;;19.70;59.00;;;;;;5012303;28;20337;-57
2021/05/20 00:47:27;;;;;;;;;;;19.70;58.90;;;;;;5002459;28;19919;-58
2021/05/20 00:49:52;;;;;;;;;;;19.70;59.00;;;;;;5000872;28;19976;-58
2021/05/20 00:52:18;;;;;;;;;;;19.70;58.90;;;;;;5011357;28;20025;-58
2021/05/20 00:54:43;;;;;;;;;;;19.70;58.90;;;;;;4993698;28;20401;-58
2021/05/20 00:57:09;;;;;;;;;;;19.70;58.90;;;;;;4999337;28;19923;-58
2021/05/20 00:59:35;;;;;;;;;;;19.70;58.90;;;;;;5018301;28;19917;-59
2021/05/20 01:02:00;;;;;;;;;;;19.70;58.90;;;;;;5019767;28;19917;-58
2021/05/20 01:04:26;;;;;;;;;;;19.70;58.90;;;;;;5016807;28;19969;-59
2021/05/20 01:06:51;;;;;;;;;;;19.70;58.90;;;;;;5016961;28;19929;-62
2021/05/20 01:09:17;;;;;;;;;;;19.70;58.80;;;;;;5006563;28;19944;-59
2021/05/20 01:11:42;;;;;;;;;;;19.60;58.80;;;;;;5016498;28;19925;-57
2021/05/20 01:14:11;;;;;;;;;;;19.70;58.80;;;;;;5022029;28;19917;-58
2021/05/20 01:16:37;;;;;;;;;;;19.70;58.80;;;;;;5019098;28;20294;-57
2021/05/20 01:19:02;;;;;;;;;;;19.70;58.70;;;;;;5015559;28;19917;-58
2021/05/20 01:21:28;;;;;;;;;;;19.70;58.80;;;;;;5020668;28;20596;-59
2021/05/20 01:23:53;;;;;;;;;;;19.70;58.80;;;;;;5022166;28;19917;-59
2021/05/20 01:26:19;;;;;;;;;;;19.60;58.70;;;;;;5021120;28;19978;-59
2021/05/20 01:28:44;;;;;;;;;;;19.60;58.70;;;;;;5015756;28;20035;-57
2021/05/20 01:31:10;;;;;;;;;;;19.60;58.70;;;;;;5000563;28;19932;-57
2021/05/20 01:33:35;;;;;;;;;;;19.60;58.70;;;;;;5020836;28;19917;-58
2021/05/20 01:36:00;;;;;;;;;;;19.70;58.70;;;;;;5020513;28;19917;-58
2021/05/20 01:41:04;;;;;;;;;;;19.60;58.60;;;;;;5012810;28;20372;-60
2021/05/20 01:43:30;;;;;;;;;;;19.60;58.60;;;;;;5002165;28;20016;-59
2021/05/20 01:48:21;;;;;;;;;;;19.60;58.60;;;;;;5016324;28;19917;-59
2021/05/20 01:50:46;;;;;;;;;;;19.60;58.60;;;;;;5016604;28;19972;-57
2021/05/20 01:53:12;;;;;;;;;;;19.60;58.60;;;;;;5020673;28;19929;-57
2021/05/20 01:55:37;;;;;;;;;;;19.60;58.60;;;;;;5010669;28;20446;-57
2021/05/20 01:58:03;;;;;;;;;;;19.60;58.60;;;;;;5016204;28;19918;-58
2021/05/20 02:00:28;;;;;;;;;;;19.60;58.60;;;;;;5019682;28;19924;-57
2021/05/20 02:02:53;;;;;;;;;;;19.60;58.50;;;;;;5020725;28;19932;-58
2021/05/20 02:05:19;;;;;;;;;;;19.60;58.60;;;;;;5014475;28;20555;-59
2021/05/20 02:07:44;;;;;;;;;;;19.60;58.50;;;;;;5020214;28;19925;-58
2021/05/20 02:10:10;;;;;;;;;;;19.60;58.50;;;;;;5017903;28;19928;-56
2021/05/20 02:12:36;;;;;;;;;;;19.60;58.50;;;;;;5013451;28;20422;-58
2021/05/20 02:15:01;;;;;;;;;;;19.60;58.50;;;;;;5019695;28;20424;-58
2021/05/20 02:17:26;;;;;;;;;;;19.60;58.50;;;;;;5020446;28;19924;-58
2021/05/20 02:19:52;;;;;;;;;;;19.60;58.50;;;;;;5019651;28;19995;-58
2021/05/20 02:22:17;;;;;;;;;;;19.60;58.50;;;;;;5020374;28;20314;-58
2021/05/20 02:24:43;;;;;;;;;;;19.60;58.50;;;;;;5003213;28;19921;-58
2021/05/20 02:27:08;;;;;;;;;;;19.60;58.50;;;;;;5008479;28;19929;-58
2021/05/20 02:32:08;;;;;;;;;;;19.60;59.10;;;;;;5005785;28;20164;-63
2021/05/20 02:34:33;;;;;;;;;;;19.60;58.50;;;;;;5014499;28;20606;-64
2021/05/20 02:36:58;;;;;;;;;;;19.60;58.50;;;;;;4993738;28;19921;-64
2021/05/20 02:39:24;;;;;;;;;;;19.60;58.50;;;;;;5017977;28;19917;-64
2021/05/20 02:41:49;;;;;;;;;;;19.60;58.50;;;;;;5018551;28;19925;-64
2021/05/20 02:44:15;;;;;;;;;;;19.50;58.40;;;;;;5013329;28;20413;-64
2021/05/20 02:46:40;;;;;;;;;;;19.60;58.50;;;;;;5018027;28;20011;-64
2021/05/20 02:49:06;;;;;;;;;;;19.50;58.40;;;;;;5038937;23;19928;-67
2021/05/20 02:51:31;;;;;;;;;;;19.50;58.40;;;;;;5038646;28;19936;-67
2021/05/20 02:53:57;;;;;;;;;;;19.50;58.40;;;;;;5042844;28;19967;-67
2021/05/20 02:56:22;;;;;;;;;;;19.50;58.40;;;;;;5039843;28;20614;-67
2021/05/20 02:58:48;;;;;;;;;;;19.50;58.30;;;;;;5031744;28;19925;-67
2021/05/20 03:01:13;;;;;;;;;;;19.60;58.40;;;;;;5032144;28;19917;-66
2021/05/20 03:03:39;;;;;;;;;;;19.50;58.40;;;;;;5038772;28;19917;-67
2021/05/20 03:06:04;;;;;;;;;;;19.50;58.30;;;;;;5032844;28;19923;-67
2021/05/20 03:08:30;;;;;;;;;;;19.50;58.40;;;;;;5041905;28;19916;-67
2021/05/20 03:10:55;;;;;;;;;;;19.50;58.30;;;;;;5042034;28;19921;-66
2021/05/20 03:13:21;;;;;;;;;;;19.50;58.30;;;;;;5042706;28;20016;-67
2021/05/20 03:15:46;;;;;;;;;;;19.50;58.30;;;;;;5042561;28;20375;-67
2021/05/20 03:18:12;;;;;;;;;;;19.50;58.30;;;;;;5034868;28;19917;-67
2021/05/20 03:20:37;;;;;;;;;;;19.50;58.30;;;;;;5040305;28;19943;-66
2021/05/20 03:23:03;;;;;;;;;;;19.50;58.30;;;;;;5041559;28;19921;-67
2021/05/20 03:25:28;;;;;;;;;;;19.50;58.30;;;;;;5038661;28;20394;-67
2021/05/20 03:27:54;;;;;;;;;;;19.50;58.20;;;;;;5029721;28;19918;-67
2021/05/20 03:30:19;;;;;;;;;;;19.50;58.20;;;;;;5027058;28;19925;-67
2021/05/20 03:32:45;;;;;;;;;;;19.50;58.30;;;;;;5043662;28;20388;-67
2021/05/20 03:35:10;;;;;;;;;;;19.50;58.20;;;;;;5045283;28;19917;-66
2021/05/20 03:37:36;;;;;;;;;;;19.50;58.20;;;;;;5035637;28;20004;-67
2021/05/20 03:40:02;;;;;;;;;;;19.50;58.20;;;;;;5040804;28;20013;-66
2021/05/20 03:42:28;;;;;;;;;;;19.50;58.20;;;;;;5041101;28;20317;-67
2021/05/20 03:44:53;;;;;;;;;;;19.50;58.20;;;;;;5044653;28;19921;-66
2021/05/20 03:47:19;;;;;;;;;;;19.50;58.30;;;;;;5042032;28;20100;-67
2021/05/20 03:49:44;;;;;;;;;;;19.50;58.20;;;;;;5038466;28;19936;-67
2021/05/20 03:52:10;;;;;;;;;;;19.50;58.20;;;;;;5044877;28;20460;-68
2021/05/20 03:54:42;;;;;;;;;;;19.50;58.20;;;;;;5046696;28;19921;-67
2021/05/20 03:57:07;;;;;;;;;;;19.50;58.20;;;;;;5040762;28;20414;-67
2021/05/20 03:59:32;;;;;;;;;;;19.50;58.20;;;;;;5028511;28;19917;-68
2021/05/20 04:01:58;;;;;;;;;;;19.50;58.20;;;;;;5038242;28;20288;-68
2021/05/20 04:04:23;;;;;;;;;;;19.50;58.20;;;;;;5043393;28;19917;-67
2021/05/20 04:06:49;;;;;;;;;;;19.50;58.20;;;;;;5043307;28;20455;-67
2021/05/20 04:09:14;;;;;;;;;;;19.50;58.20;;;;;;5041187;28;19917;-69
2021/05/20 04:11:40;;;;;;;;;;;19.40;58.10;;;;;;5045819;28;19921;-68
2021/05/20 04:14:05;;;;;;;;;;;19.50;58.20;;;;;;5025962;28;19921;-67
2021/05/20 04:16:31;;;;;;;;;;;19.50;58.20;;;;;;5045804;28;19964;-68
2021/05/20 04:18:56;;;;;;;;;;;19.50;58.20;;;;;;5045649;28;20632;-66
2021/05/20 04:21:21;;;;;;;;;;;19.50;58.10;;;;;;5038731;28;19921;-67
2021/05/20 04:23:47;;;;;;;;;;;19.40;58.00;;;;;;5031099;28;19952;-67
2021/05/20 04:26:13;;;;;;;;;;;19.50;58.20;;;;;;5034287;28;19925;-67
2021/05/20 04:28:38;;;;;;;;;;;19.50;58.20;;;;;;5038362;28;19992;-67
2021/05/20 04:31:03;;;;;;;;;;;19.50;58.10;;;;;;5023409;28;19931;-70
2021/05/20 04:33:29;;;;;;;;;;;19.50;58.10;;;;;;5034928;28;19951;-68
2021/05/20 04:35:54;;;;;;;;;;;19.40;58.20;;;;;;5031438;28;19921;-67
2021/05/20 04:38:20;;;;;;;;;;;19.40;58.30;;;;;;5039417;28;19928;-66
2021/05/20 04:40:45;;;;;;;;;;;19.50;58.40;;;;;;5039495;28;19962;-67
2021/05/20 04:43:11;;;;;;;;;;;19.50;58.50;;;;;;5039217;28;19970;-67
2021/05/20 04:45:36;;;;;;;;;;;19.50;58.60;;;;;;5033917;28;20383;-67
2021/05/20 04:48:02;;;;;;;;;;;19.50;58.70;;;;;;5038512;28;19924;-69
2021/05/20 04:50:27;;;;;;;;;;;19.50;58.70;;;;;;5011576;28;19942;-68
2021/05/20 04:52:53;;;;;;;;;;;19.50;59.00;;;;;;5046402;28;19998;-67
2021/05/20 04:55:18;;;;;;;;;;;19.50;59.20;;;;;;5044933;28;19925;-69
2021/05/20 04:57:44;;;;;;;;;;;19.50;59.50;;;;;;5028963;28;20379;-67
2021/05/20 05:00:10;;;;;;;;;;;19.40;59.60;;;;;;5028317;28;19921;-67
2021/05/20 05:02:35;;;;;;;;;;;19.40;59.60;;;;;;5046029;28;19963;-67
2021/05/20 05:05:01;;;;;;;;;;;19.40;59.70;;;;;;5045258;28;19921;-68
2021/05/20 05:07:26;;;;;;;;;;;19.40;59.70;;;;;;5044875;28;20003;-67
2021/05/20 05:09:52;;;;;;;;;;;19.40;59.60;;;;;;5047510;28;20343;-69
2021/05/20 05:12:17;;;;;;;;;;;19.40;59.50;;;;;;5047551;28;19921;-69
2021/05/20 05:14:43;;;;;;;;;;;19.40;59.40;;;;;;5047878;28;19920;-68
2021/05/20 05:17:08;;;;;;;;;;;19.40;59.40;;;;;;5047592;28;19982;-66
2021/05/20 05:19:33;;;;;;;;;;;19.40;59.40;;;;;;5029499;28;19931;-68
2021/05/20 05:22:02;;;;;;;;;;;19.50;59.30;;;;;;5029453;28;19917;-70
2021/05/20 05:24:28;;;;;;;;;;;19.50;59.20;;;;;;5046921;28;19923;-68
2021/05/20 05:26:53;;;;;;;;;;;19.50;59.70;;;;;;5028554;28;19912;-68
2021/05/20 05:29:19;;;;;;;;;;;19.50;59.90;;;;;;5047554;28;19935;-68
2021/05/20 05:31:44;;;;;;;;;;;19.50;59.90;;;;;;5048689;28;19920;-68
2021/05/20 05:34:10;;;;;;;;;;;19.60;59.70;;;;;;5030325;28;19912;-68
2021/05/20 05:36:35;;;;;;;;;;;19.60;59.70;;;;;;5047821;28;20350;-68
2021/05/20 05:39:01;;;;;;;;;;;19.60;59.60;;;;;;5047138;28;19913;-68
2021/05/20 05:41:26;;;;;;;;;;;19.70;59.50;;;;;;5029385;28;19959;-67
2021/05/20 05:43:51;;;;;;;;;;;19.60;59.50;;;;;;5028593;28;19914;-67
2021/05/20 05:46:17;;;;;;;;;;;19.60;59.50;;;;;;5028783;28;20292;-67
2021/05/20 05:48:43;;;;;;;;;;;19.60;59.50;;;;;;5029191;28;19917;-69
2021/05/20 05:51:12;;;;;;;;;;;19.60;59.50;;;;;;5028424;28;19960;-68
2021/05/20 05:53:38;;;;;;;;;;;19.70;59.40;;;;;;5028807;28;19921;-68
2021/05/20 05:56:03;;;;;;;;;;;19.70;59.30;;;;;;5027479;28;19917;-68
2021/05/20 05:58:29;;;;;;;;;;;19.70;59.10;;;;;;5018868;28;19913;-69
2021/05/20 06:00:54;;;;;;;;;;;19.70;59.10;;;;;;5049587;28;19913;-69
2021/05/20 06:03:20;;;;;;;;;;;19.60;59.10;;;;;;5049106;28;19920;-69
2021/05/20 06:05:48;;;;;;;;;;;19.70;59.10;;;;;;5049860;28;20414;-69
2021/05/20 06:08:14;;;;;;;;;;;19.70;59.20;;;;;;5030297;28;23127;-70
2021/05/20 06:10:39;;;;;;;;;;;19.70;59.20;;;;;;5049088;28;19917;-69
2021/05/20 06:13:05;;;;;;;;;;;19.70;59.10;;;;;;5049214;28;19976;-68
2021/05/20 06:15:30;;;;;;;;;;;19.70;59.20;;;;;;5049222;28;19913;-68
2021/05/20 06:17:56;;;;;;;;;;;19.70;59.20;;;;;;5048881;28;19924;-68
2021/05/20 06:20:21;;;;;;;;;;;19.70;59.20;;;;;;5048622;28;19920;-68
2021/05/20 06:22:47;;;;;;;;;;;19.80;59.20;;;;;;5049127;28;19936;-69
2021/05/20 06:25:12;;;;;;;;;;;19.70;59.10;;;;;;5049115;28;19924;-69
2021/05/20 06:27:38;;;;;;;;;;;19.70;59.00;;;;;;5048698;28;19913;-67
2021/05/20 06:30:04;;;;;;;;;;;19.70;59.00;;;;;;5048465;28;19913;-67
2021/05/20 06:32:29;;;;;;;;;;;19.70;59.00;;;;;;5048654;28;20367;-68
2021/05/20 06:34:54;;;;;;;;;;;19.70;58.90;;;;;;5048850;28;19913;-68
2021/05/20 06:37:20;;;;;;;;;;;19.80;59.00;;;;;;5048718;28;19963;-68
2021/05/20 06:39:45;;;;;;;;;;;19.80;59.00;;;;;;5049460;28;20390;-69
2021/05/20 06:42:11;;;;;;;;;;;19.80;59.00;;;;;;5049281;28;19913;-68
2021/05/20 06:44:37;;;;;;;;;;;19.80;59.20;;;;;;5049562;28;19939;-68
2021/05/20 06:47:02;;;;;;;;;;;19.70;58.90;;;;;;5048726;28;19944;-68
2021/05/20 06:49:28;;;;;;;;;;;19.70;58.80;;;;;;5048283;28;20406;-68
2021/05/20 06:51:53;;;;;;;;;;;19.70;58.70;;;;;;5048174;28;19916;-68
2021/05/20 06:54:18;;;;;;;;;;;19.70;58.70;;;;;;5048378;28;19913;-68
2021/05/20 06:56:48;;;;;;;;;;;19.80;58.80;;;;;;5048491;28;19920;-67
2021/05/20 07:01:58;;;;;;;;;;;19.80;58.80;;;;;;5048039;28;19920;-69
2021/05/20 07:04:23;;;;;;;;;;;19.70;58.80;;;;;;5048200;28;20288;-69
2021/05/20 07:06:49;;;;;;;;;;;19.80;58.70;;;;;;5047496;28;19920;-70
2021/05/20 07:09:14;;;;;;;;;;;19.80;58.70;;;;;;5030098;28;19927;-69
2021/05/20 07:11:40;;;;;;;;;;;19.70;58.60;;;;;;5036904;28;19917;-70
2021/05/20 07:14:05;;;;;;;;;;;19.80;58.80;;;;;;5030587;28;20003;-71
2021/05/20 07:16:32;;;;;;;;;;;19.70;58.60;;;;;;5030261;28;19912;-70
2021/05/20 07:18:58;;;;;;;;;;;19.80;58.70;;;;;;5048087;28;19920;-69
2021/05/20 07:21:23;;;;;;;;;;;19.80;58.70;;;;;;5029841;28;19916;-68
2021/05/20 07:23:49;;;;;;;;;;;19.80;58.60;;;;;;5048352;28;20151;-67
2021/05/20 07:26:14;;;;;;;;;;;19.80;58.60;;;;;;5048304;28;19921;-68
2021/05/20 07:28:40;;;;;;;;;;;19.80;58.60;;;;;;5048177;28;20430;-69
2021/05/20 07:31:05;;;;;;;;;;;19.80;58.60;;;;;;5029946;28;19943;-67
2021/05/20 07:33:31;;;;;;;;;;;19.70;58.60;;;;;;5047905;28;20296;-69
2021/05/20 07:35:56;;;;;;;;;;;19.80;58.60;;;;;;5047854;28;19971;-69
2021/05/20 07:38:22;;;;;;;;;;;19.80;58.60;;;;;;5047990;28;19967;-68
2021/05/20 07:40:47;;;;;;;;;;;19.70;58.50;;;;;;5048117;28;19913;-68
2021/05/20 07:43:12;;;;;;;;;;;19.70;58.60;;;;;;5047912;28;20314;-68
2021/05/20 07:45:38;;;;;;;;;;;19.70;58.50;;;;;;5047617;28;19925;-68
2021/05/20 07:48:03;;;;;;;;;;;19.70;58.50;;;;;;5029736;28;19919;-68
2021/05/20 07:50:29;;;;;;;;;;;19.80;58.50;;;;;;5047060;28;19920;-67
2021/05/20 07:52:54;;;;;;;;;;;19.80;58.60;;;;;;5047773;28;19917;-69
2021/05/20 07:55:20;;;;;;;;;;;19.70;58.60;;;;;;5047557;28;20365;-68
2021/05/20 07:57:45;;;;;;;;;;;19.70;58.50;;;;;;5048309;28;19947;-68
2021/05/20 08:00:12;;;;;;;;;;;19.70;58.50;;;;;;5047413;28;19920;-68
2021/05/20 08:02:47;;;;;;;;;;;19.80;58.50;;;;;;5047407;28;19957;-68
2021/05/20 08:05:22;;;;;;;;;;;19.70;58.50;;;;;;5031001;28;19917;-67
2021/05/20 08:12:48;;;;;;;;;;;19.70;58.80;;;;;;5047928;28;19921;-67
2021/05/20 08:15:14;;;;;;;;;;;19.70;58.90;;;;;;5047476;28;19924;-67
2021/05/20 08:17:39;;;;;;;;;;;19.80;58.90;;;;;;5029456;28;19928;-67
2021/05/20 08:20:05;;;;;;;;;;;19.80;58.80;;;;;;5050066;28;20375;-67
2021/05/20 08:22:30;;;;;;;;;;;19.80;58.70;;;;;;5051182;28;19996;-67
2021/05/20 08:24:56;;;;;;;;;;;19.80;58.70;;;;;;5051634;28;19919;-67
2021/05/20 08:27:22;;;;;;;;;;;19.80;58.70;;;;;;5050705;28;20256;-67
2021/05/20 08:29:47;;;;;;;;;;;19.80;58.70;;;;;;5051367;28;20284;-67
2021/05/20 08:32:13;;;;;;;;;;;19.80;58.70;;;;;;5050478;28;19921;-67
2021/05/20 08:34:39;;;;;;;;;;;19.80;58.60;;;;;;5033249;28;20360;-67
2021/05/20 08:37:05;;;;;;;;;;;19.80;58.50;;;;;;5050284;28;19952;-67
2021/05/20 08:39:30;;;;;;;;;;;19.80;58.40;;;;;;5050081;28;19912;-67
2021/05/20 08:41:56;;;;;;;;;;;19.80;58.40;;;;;;5049890;28;19913;-66
2021/05/20 08:44:25;;;;;;;;;;;19.80;58.30;;;;;;5031848;28;19913;-67
2021/05/20 08:46:50;;;;;;;;;;;19.80;58.20;;;;;;5049366;28;20292;-68
2021/05/20 08:49:16;;;;;;;;;;;19.80;58.70;;;;;;5032052;28;19921;-67
2021/05/20 08:51:44;;;;;;;;;;;19.80;58.10;;;;;;5068001;22;20074;-67
2021/05/20 08:54:10;;;;;;;;;;;19.80;58.00;;;;;;5035969;28;19947;-67
2021/05/20 08:56:35;;;;;;;;;;;19.80;57.90;;;;;;5048718;28;19920;-67
2021/05/20 08:59:01;;;;;;;;;;;19.80;57.90;;;;;;5049467;28;19966;-67
2021/05/20 09:01:35;;;;;;;;;;;19.80;57.80;;;;;;5049119;28;20414;-67
2021/05/20 09:04:01;;;;;;;;;;;19.80;57.70;;;;;;5049422;28;20318;-67
2021/05/20 09:06:41;;;;;;;;;;;19.80;57.70;;;;;;5049405;28;19919;-67
2021/05/20 09:09:10;;;;;;;;;;;19.80;57.80;;;;;;5048949;28;19917;-67
2021/05/20 09:11:35;;;;;;;;;;;19.80;57.90;;;;;;5049200;28;19940;-66
2021/05/20 09:14:02;;;;;;;;;;;19.80;57.70;;;;;;5048901;28;20375;-66
2021/05/20 09:16:27;;;;;;;;;;;19.80;57.70;;;;;;5049002;28;19913;-67
2021/05/20 09:18:53;;;;;;;;;;;19.80;57.80;;;;;;5049027;28;20394;-67
2021/05/20 09:21:18;;;;;;;;;;;19.80;57.80;;;;;;5048902;28;19913;-67
2021/05/20 09:23:50;;;;;;;;;;;19.70;57.80;;;;;;5049013;28;20370;-67
2021/05/20 09:26:15;;;;;;;;;;;19.70;57.80;;;;;;5031489;28;20300;-67
2021/05/20 09:28:42;;;;;;;;;;;19.70;57.80;;;;;;5031330;28;19920;-67
2021/05/20 09:31:12;;;;;;;;;;;19.70;58.40;;;;;;5047713;28;19995;-67
2021/05/20 09:33:37;;;;;;;;;;;19.70;57.90;;;;;;5030747;28;20382;-67
2021/05/20 09:36:03;;;;;;;;;;;19.70;57.90;;;;;;5048810;28;19951;-68
2021/05/20 09:38:28;;;;;;;;;;;19.70;57.90;;;;;;5031459;28;19924;-67
2021/05/20 09:41:03;;;;;;;;;;;19.70;57.90;;;;;;5049535;28;20396;-68
2021/05/20 09:43:31;;;;;;;;;;;19.80;58.10;;;;;;5031916;28;19923;-67
2021/05/20 09:45:57;;;;;;;;;;;19.80;58.10;;;;;;5049498;28;19944;-68
2021/05/20 09:48:22;;;;;;;;;;;19.70;58.10;;;;;;5049016;28;19921;-67
2021/05/20 09:50:48;;;;;;;;;;;19.70;58.10;;;;;;5049427;28;19917;-67
2021/05/20 09:53:15;;;;;;;;;;;19.70;58.10;;;;;;5049165;28;19924;-68
2021/05/20 09:55:43;;;;;;;;;;;19.80;58.20;;;;;;5049460;28;19967;-67
2021/05/20 09:58:09;;;;;;;;;;;19.70;58.10;;;;;;5049082;28;20024;-67
2021/05/20 10:00:36;;;;;;;;;;;19.80;58.10;;;;;;5048969;28;19917;-67
2021/05/20 10:03:05;;;;;;;;;;;19.80;58.10;;;;;;5048974;28;19943;-67
2021/05/20 10:05:32;;;;;;;;;;;19.70;58.10;;;;;;5049254;28;19917;-66
2021/05/20 10:07:58;;;;;;;;;;;19.70;58.10;;;;;;5049080;28;19953;-66
2021/05/20 10:10:23;;;;;;;;;;;19.80;58.20;;;;;;5047981;28;19963;-68
2021/05/20 10:12:49;;;;;;;;;;;19.70;58.10;;;;;;5049184;28;19923;-67
2021/05/20 10:15:18;;;;;;;;;;;19.70;58.10;;;;;;5048944;28;20371;-67
2021/05/20 10:17:43;;;;;;;;;;;19.70;58.20;;;;;;5048743;28;19913;-68
2021/05/20 10:20:10;;;;;;;;;;;19.70;58.20;;;;;;5049018;28;20027;-67
2021/05/20 10:22:35;;;;;;;;;;;19.80;58.20;;;;;;5049102;28;19913;-68
2021/05/20 10:25:01;;;;;;;;;;;19.70;58.20;;;;;;5049236;28;19913;-67
2021/05/20 10:27:27;;;;;;;;;;;19.70;58.10;;;;;;5048806;28;20048;-67
2021/05/20 10:29:52;;;;;;;;;;;19.70;58.10;;;;;;5048596;28;19940;-68
2021/05/20 10:32:18;;;;;;;;;;;19.70;58.20;;;;;;5030761;28;20272;-68
2021/05/20 10:35:01;;;;;;;;;;;19.70;58.30;;;;;;5048329;28;19952;-68
2021/05/20 10:37:28;;;;;;;;;;;19.70;58.20;;;;;;5048353;28;20358;-68
2021/05/20 10:39:54;;;;;;;;;;;19.70;58.30;;;;;;5030416;28;19913;-66
2021/05/20 10:42:31;;;;;;;;;;;19.70;58.30;;;;;;5048554;28;20288;-68
2021/05/20 10:45:12;;;;;;;;;;;19.70;58.30;;;;;;5048351;28;19924;-69
2021/05/20 10:47:58;;;;;;;;;;;19.70;58.30;;;;;;5030315;28;19971;-67
2021/05/20 10:50:32;;;;;;;;;;;19.70;58.40;;;;;;5047973;28;20384;-68
2021/05/20 10:52:58;;;;;;;;;;;19.70;58.70;;;;;;5014325;28;19917;-69
2021/05/20 10:55:23;;;;;;;;;;;19.70;59.10;;;;;;5048395;28;19924;-69
2021/05/20 10:57:48;;;;;;;;;;;19.70;59.30;;;;;;5014849;28;19913;-69
2021/05/20 11:00:33;;;;;;;;;;;19.70;59.30;;;;;;5047908;28;19923;-68
2021/05/20 11:02:59;;;;;;;;;;;19.60;59.50;;;;;;5048164;28;19917;-67
2021/05/20 11:05:45;;;;;;;;;;;19.70;59.60;;;;;;5047814;28;19913;-68
2021/05/20 11:08:31;;;;;;;;;;;19.70;59.80;;;;;;5040938;28;20382;-67
2021/05/20 11:10:56;;;;;;;;;;;19.60;59.80;;;;;;5047172;28;20466;-67
2021/05/20 11:13:34;;;;;;;;;;;19.60;59.60;;;;;;5048236;28;19917;-67
2021/05/20 11:16:13;;;;;;;;;;;19.70;59.50;;;;;;5030016;28;19983;-66
2021/05/20 11:18:38;;;;;;;;;;;19.70;59.50;;;;;;5048640;28;19966;-68
2021/05/20 11:21:04;;;;;;;;;;;19.60;59.50;;;;;;5047704;28;19917;-65
2021/05/20 11:23:30;;;;;;;;;;;19.70;60.20;;;;;;5013105;28;20371;-66
2021/05/20 11:26:14;;;;;;;;;;;19.70;59.70;;;;;;5047467;28;19924;-66
2021/05/20 11:28:40;;;;;;;;;;;19.70;60.00;;;;;;5047903;28;19920;-66
2021/05/20 11:31:06;;;;;;;;;;;19.70;59.90;;;;;;5029709;28;19932;-66
2021/05/20 11:33:38;;;;;;;;;;;19.70;59.90;;;;;;5048299;28;19913;-67
2021/05/20 11:38:29;;;;;;;;;;;19.70;60.50;;;;;;5048076;28;19913;-67
2021/05/20 11:40:55;;;;;;;;;;;19.70;60.00;;;;;;5047854;28;19976;-67
2021/05/20 11:43:29;;;;;;;;;;;19.70;59.80;;;;;;5030301;28;20409;-66
2021/05/20 11:45:55;;;;;;;;;;;19.70;59.90;;;;;;5050233;28;19913;-68
2021/05/20 11:48:20;;;;;;;;;;;19.70;59.90;;;;;;5050021;28;19912;-68
2021/05/20 11:50:52;;;;;;;;;;;19.70;59.80;;;;;;5048318;28;19916;-65
2021/05/20 11:53:18;;;;;;;;;;;19.70;59.70;;;;;;5048122;28;19917;-67
2021/05/20 11:55:46;;;;;;;;;;;19.70;59.60;;;;;;5047272;28;19924;-65
2021/05/20 11:58:11;;;;;;;;;;;19.70;59.60;;;;;;5032325;28;19916;-66
2021/05/20 12:00:36;;;;;;;;;;;19.70;59.50;;;;;;5036499;28;19928;-63
2021/05/20 12:03:03;;;;;;;;;;;19.70;59.50;;;;;;5029910;28;19913;-66
2021/05/20 12:05:28;;;;;;;;;;;19.80;59.60;;;;;;5029597;28;20303;-66
2021/05/20 12:07:54;;;;;;;;;;;19.80;59.40;;;;;;5029671;28;19920;-66
2021/05/20 12:10:20;;;;;;;;;;;19.70;59.50;;;;;;5030538;28;19917;-66
2021/05/20 12:13:07;;;;;;;;;;;19.80;59.60;;;;;;5030319;28;20012;-64
2021/05/20 12:15:33;;;;;;;;;;;19.70;59.40;;;;;;5030814;28;19913;-67
2021/05/20 12:18:01;;;;;;;;;;;19.70;59.40;;;;;;5031514;28;19913;-67
2021/05/20 12:20:27;;;;;;;;;;;19.70;59.30;;;;;;5030513;28;19921;-66
2021/05/20 12:22:52;;;;;;;;;;;19.70;59.30;;;;;;5031239;28;19924;-66
2021/05/20 12:25:18;;;;;;;;;;;19.70;59.40;;;;;;5031235;28;19921;-67
2021/05/20 12:27:51;;;;;;;;;;;19.80;59.40;;;;;;5030924;28;19936;-67
2021/05/20 12:30:18;;;;;;;;;;;19.80;59.40;;;;;;5030718;28;19924;-66
2021/05/20 12:32:44;;;;;;;;;;;19.70;59.40;;;;;;5031095;28;19924;-67
2021/05/20 12:35:10;;;;;;;;;;;19.70;59.50;;;;;;5030977;28;20379;-67
2021/05/20 12:37:42;;;;;;;;;;;19.70;59.50;;;;;;5031503;28;19995;-67
2021/05/20 12:40:09;;;;;;;;;;;19.80;59.60;;;;;;5030957;28;19943;-67
2021/05/20 12:42:34;;;;;;;;;;;19.70;59.50;;;;;;5031036;28;19914;-67
2021/05/20 12:45:00;;;;;;;;;;;19.70;59.60;;;;;;5031463;28;20380;-67
2021/05/20 12:47:26;;;;;;;;;;;19.70;59.50;;;;;;5030936;28;19931;-67
2021/05/20 12:49:57;;;;;;;;;;;19.70;59.60;;;;;;5029663;28;20380;-67
2021/05/20 12:52:22;;;;;;;;;;;19.70;59.60;;;;;;5029796;28;19932;-65
2021/05/20 12:54:48;;;;;;;;;;;19.70;59.60;;;;;;5012833;28;19914;-66
2021/05/20 12:57:14;;;;;;;;;;;19.70;59.50;;;;;;5012171;28;19913;-66
2021/05/20 12:59:39;;;;;;;;;;;19.70;59.60;;;;;;5030292;28;20495;-67
2021/05/20 13:02:09;;;;;;;;;;;19.70;59.40;;;;;;5029700;28;19913;-67
2021/05/20 13:04:35;;;;;;;;;;;19.80;59.60;;;;;;5029987;28;19914;-67
2021/05/20 13:07:07;;;;;;;;;;;19.80;59.50;;;;;;5028882;28;19914;-65
2021/05/20 13:09:36;;;;;;;;;;;19.80;59.40;;;;;;5030293;28;19913;-67
2021/05/20 13:12:07;;;;;;;;;;;19.80;59.30;;;;;;5029093;28;19917;-67
2021/05/20 13:14:44;;;;;;;;;;;19.80;59.20;;;;;;5029928;28;20413;-67
2021/05/20 13:22:28;;;;;;;;;;;19.80;59.10;;;;;;5029554;28;19951;-67
2021/05/20 13:24:55;;;;;;;;;;;19.80;59.20;;;;;;4995380;28;19968;-66
2021/05/20 13:27:21;;;;;;;;;;;19.80;59.20;;;;;;5028685;28;19913;-66
2021/05/20 13:29:51;;;;;;;;;;;19.80;59.10;;;;;;5012841;28;19914;-66
2021/05/20 13:32:26;;;;;;;;;;;19.80;59.10;;;;;;5029548;28;20268;-63
2021/05/20 13:34:52;;;;;;;;;;;19.80;59.20;;;;;;5010551;28;19920;-68
2021/05/20 13:37:17;;;;;;;;;;;19.80;59.20;;;;;;5029464;28;19917;-64
2021/05/20 13:39:44;;;;;;;;;;;19.80;59.20;;;;;;5029836;28;19920;-67
2021/05/20 13:42:09;;;;;;;;;;;19.80;59.10;;;;;;5028710;28;19996;-67
2021/05/20 13:44:43;;;;;;;;;;;19.80;59.10;;;;;;5029604;28;19992;-67
2021/05/20 13:47:08;;;;;;;;;;;19.90;59.10;;;;;;5029444;28;20399;-67
2021/05/20 13:49:39;;;;;;;;;;;19.80;59.00;;;;;;5029412;28;19913;-67
2021/05/20 13:52:05;;;;;;;;;;;19.80;59.10;;;;;;5028940;28;19944;-67
2021/05/20 13:54:31;;;;;;;;;;;19.80;59.00;;;;;;5029635;28;20016;-67
2021/05/20 13:56:59;;;;;;;;;;;19.80;59.00;;;;;;5029386;28;19918;-67
2021/05/20 13:59:24;;;;;;;;;;;19.80;59.00;;;;;;5028612;28;20384;-65
2021/05/20 14:01:50;;;;;;;;;;;19.80;59.00;;;;;;5011713;28;19924;-67
2021/05/20 14:04:24;;;;;;;;;;;19.90;59.00;;;;;;5029121;28;19940;-64
2021/05/20 14:06:50;;;;;;;;;;;19.90;58.90;;;;;;5028806;28;19918;-67
2021/05/20 14:09:15;;;;;;;;;;;19.80;58.90;;;;;;5029331;28;19919;-67
2021/05/20 14:11:41;;;;;;;;;;;19.90;59.00;;;;;;5028653;28;20634;-66
2021/05/20 14:14:06;;;;;;;;;;;19.90;58.90;;;;;;5028874;28;19925;-68
2021/05/20 14:16:32;;;;;;;;;;;19.90;58.90;;;;;;5028715;28;19963;-67
2021/05/20 14:18:57;;;;;;;;;;;19.90;59.00;;;;;;5028091;28;20032;-67
2021/05/20 14:21:24;;;;;;;;;;;19.90;58.90;;;;;;5028668;28;19917;-64
2021/05/20 14:23:49;;;;;;;;;;;19.90;58.90;;;;;;5029186;28;20327;-68
2021/05/20 14:26:15;;;;;;;;;;;19.90;58.90;;;;;;5028730;28;19913;-68
2021/05/20 14:28:41;;;;;;;;;;;19.90;58.90;;;;;;5011176;28;19917;-67
2021/05/20 14:31:06;;;;;;;;;;;19.90;58.90;;;;;;5028693;28;19925;-67
2021/05/20 14:33:32;;;;;;;;;;;19.90;58.90;;;;;;5028847;28;19913;-68
2021/05/20 14:35:57;;;;;;;;;;;19.90;59.00;;;;;;5028177;28;20299;-67